Time;durP1;ratioP1;P1;durP2;ratioP2;P2;SDS_P1;SDS_P2;PMS_P1;PMS_P2;Temp;Humidity;BMP_temperature;BMP_pressure;BME280_temperature;BME280_humidity;BME280_pressure;Samples;Min_cycle;Max_cycle;Signal;HPM_P1;HPM_P2
2023/06/09 00:01:35;;;;;;;16.85;6.38;;;;;;;;;;5121526;28;20058;-73
2023/06/09 00:04:09;;;;;;;18.38;7.10;;;;;;;;;;5132607;28;20047;-73
2023/06/09 00:06:35;;;;;;;21.85;7.70;;;;;;;;;;5114767;27;20511;-73
2023/06/09 00:09:04;;;;;;;16.27;7.18;;;;;;;;;;5152769;27;20046;-73
2023/06/09 00:11:30;;;;;;;18.52;7.00;;;;;;;;;;5141882;27;20059;-72
2023/06/09 00:13:56;;;;;;;15.63;6.90;;;;;;;;;;5127310;27;20043;-73
2023/06/09 00:16:23;;;;;;;21.60;7.78;;;;;;;;;;5132088;27;20155;-73
2023/06/09 00:18:50;;;;;;;20.15;7.75;;;;;;;;;;5145246;27;20042;-73
2023/06/09 00:21:17;;;;;;;20.45;7.70;;;;;;;;;;5137731;27;20129;-73
2023/06/09 00:23:44;;;;;;;20.45;7.78;;;;;;;;;;5141080;27;20566;-74
2023/06/09 00:26:10;;;;;;;19.90;7.53;;;;;;;;;;5117861;27;20043;-74
2023/06/09 00:28:36;;;;;;;16.40;7.18;;;;;;;;;;5117563;27;20467;-74
2023/06/09 00:31:02;;;;;;;24.10;9.05;;;;;;;;;;5135908;27;20133;-74
2023/06/09 00:33:28;;;;;;;20.00;8.15;;;;;;;;;;5136090;27;20035;-74
2023/06/09 00:35:54;;;;;;;23.92;8.70;;;;;;;;;;5130840;27;20045;-73
2023/06/09 00:38:20;;;;;;;21.08;9.75;;;;;;;;;;5156754;27;20114;-74
2023/06/09 00:40:47;;;;;;;28.30;10.75;;;;;;;;;;5138009;27;20471;-74
2023/06/09 00:43:13;;;;;;;23.40;9.35;;;;;;;;;;5156452;27;20047;-74
2023/06/09 00:45:40;;;;;;;23.90;10.38;;;;;;;;;;5156899;27;20030;-73
2023/06/09 00:48:06;;;;;;;25.52;10.30;;;;;;;;;;5156745;27;20099;-72
2023/06/09 00:50:32;;;;;;;21.55;10.07;;;;;;;;;;5150123;27;20437;-72
2023/06/09 00:52:59;;;;;;;27.08;11.13;;;;;;;;;;5128312;27;20399;-72
2023/06/09 00:55:26;;;;;;;21.27;10.45;;;;;;;;;;5136547;27;20475;-72
2023/06/09 00:57:55;;;;;;;20.83;9.77;;;;;;;;;;5114163;27;20168;-73
2023/06/09 01:00:27;;;;;;;21.27;10.02;;;;;;;;;;5117846;27;20078;-73
2023/06/09 01:03:02;;;;;;;23.92;10.27;;;;;;;;;;5140141;27;20042;-73
2023/06/09 01:05:28;;;;;;;;;;;;;;;;;;5155986;27;20046;-74
2023/06/09 01:07:57;;;;;;;25.23;10.23;;;;;;;;;;5138018;27;19952;-74
2023/06/09 01:10:32;;;;;;;23.80;9.90;;;;;;;;;;5134277;27;20403;-74
2023/06/09 01:13:14;;;;;;;23.65;9.82;;;;;;;;;;5118537;27;20398;-73
2023/06/09 01:15:43;;;;;;;21.42;10.18;;;;;;;;;;5126206;27;20074;-73
2023/06/09 01:18:12;;;;;;;21.58;9.90;;;;;;;;;;5137020;27;20046;-73
2023/06/09 01:20:45;;;;;;;24.92;10.27;;;;;;;;;;5136910;27;20116;-74
2023/06/09 01:23:34;;;;;;;27.10;10.38;;;;;;;;;;5137652;27;20042;-73
2023/06/09 01:26:01;;;;;;;22.08;10.38;;;;;;;;;;5126511;27;20462;-73
2023/06/09 01:28:28;;;;;;;26.98;10.05;;;;;;;;;;5138487;27;20050;-73
2023/06/09 01:30:55;;;;;;;24.35;10.45;;;;;;;;;;5109513;27;20074;-74
2023/06/09 01:33:22;;;;;;;24.23;9.73;;;;;;;;;;5154966;27;20075;-74
2023/06/09 01:35:49;;;;;;;24.33;10.57;;;;;;;;;;5137001;27;20491;-73
2023/06/09 01:38:16;;;;;;;22.25;9.38;;;;;;;;;;5155418;27;20123;-73
2023/06/09 01:40:43;;;;;;;25.23;9.32;;;;;;;;;;5119170;27;20341;-74
2023/06/09 01:43:10;;;;;;;21.90;9.23;;;;;;;;;;5116300;27;20047;-73
2023/06/09 01:45:36;;;;;;;21.73;9.70;;;;;;;;;;5116288;27;20050;-73
2023/06/09 01:48:07;;;;;;;22.50;9.45;;;;;;;;;;5134626;27;20050;-73
2023/06/09 01:50:47;;;;;;;24.85;9.30;;;;;;;;;;5134603;27;20074;-73
2023/06/09 01:53:15;;;;;;;21.55;9.25;;;;;;;;;;5115937;27;20127;-73
2023/06/09 01:55:52;;;;;;;20.98;8.70;;;;;;;;;;5135555;27;20043;-73
2023/06/09 01:58:23;;;;;;;26.88;9.00;;;;;;;;;;5134267;27;20043;-73
2023/06/09 02:00:49;;;;;;;23.55;8.75;;;;;;;;;;5145071;27;20038;-74
2023/06/09 02:03:17;;;;;;;22.20;8.85;;;;;;;;;;5133079;27;20080;-74
2023/06/09 02:05:44;;;;;;;23.05;8.13;;;;;;;;;;5133530;27;20077;-72
2023/06/09 02:08:11;;;;;;;20.13;8.63;;;;;;;;;;5135851;27;20050;-73
2023/06/09 02:10:37;;;;;;;24.75;8.68;;;;;;;;;;5125292;27;20035;-72
2023/06/09 02:13:13;;;;;;;20.95;8.63;;;;;;;;;;5134106;27;20039;-72
2023/06/09 02:15:40;;;;;;;24.38;9.88;;;;;;;;;;5123673;27;20504;-73
2023/06/09 02:18:07;;;;;;;21.10;8.63;;;;;;;;;;5154932;27;20050;-72
2023/06/09 02:20:33;;;;;;;22.13;8.65;;;;;;;;;;5154161;27;20094;-73
2023/06/09 02:22:59;;;;;;;20.65;8.80;;;;;;;;;;5154589;27;20046;-73
2023/06/09 02:25:28;;;;;;;18.63;8.50;;;;;;;;;;5135713;27;20179;-73
2023/06/09 02:27:54;;;;;;;22.05;8.82;;;;;;;;;;5132648;27;20117;-74
2023/06/09 02:30:20;;;;;;;19.45;8.52;;;;;;;;;;5105110;27;20447;-75
2023/06/09 02:32:47;;;;;;;23.73;8.65;;;;;;;;;;5151607;27;20431;-73
2023/06/09 02:35:13;;;;;;;25.67;8.85;;;;;;;;;;5133685;27;20465;-73
2023/06/09 02:37:41;;;;;;;20.50;8.82;;;;;;;;;;5133564;27;20039;-73
2023/06/09 02:40:08;;;;;;;23.98;9.02;;;;;;;;;;5127140;27;20043;-73
2023/06/09 02:42:34;;;;;;;20.67;8.52;;;;;;;;;;5133561;27;20043;-73
2023/06/09 02:45:00;;;;;;;20.80;9.52;;;;;;;;;;5145229;27;20495;-73
2023/06/09 02:47:27;;;;;;;19.80;8.82;;;;;;;;;;5153344;27;20068;-74
2023/06/09 02:49:53;;;;;;;19.33;8.75;;;;;;;;;;5153963;27;20064;-73
2023/06/09 02:52:20;;;;;;;25.20;10.30;;;;;;;;;;5153885;27;20126;-73
2023/06/09 02:54:47;;;;;;;20.27;9.70;;;;;;;;;;5152846;27;20046;-74
2023/06/09 02:57:14;;;;;;;22.70;10.00;;;;;;;;;;5142391;27;20154;-73
2023/06/09 02:59:40;;;;;;;19.63;9.02;;;;;;;;;;5133084;27;20065;-73
2023/06/09 03:02:06;;;;;;;22.23;9.10;;;;;;;;;;5133409;27;20047;-74
2023/06/09 03:04:35;;;;;;;20.08;8.55;;;;;;;;;;5133124;27;20039;-73
2023/06/09 03:07:00;;;;;;;20.30;9.07;;;;;;;;;;5133249;27;20055;-73
2023/06/09 03:09:27;;;;;;;21.42;9.15;;;;;;;;;;5141768;27;20079;-73
2023/06/09 03:11:53;;;;;;;20.35;9.38;;;;;;;;;;5152782;27;20038;-73
2023/06/09 03:14:19;;;;;;;22.50;9.38;;;;;;;;;;5151419;27;20046;-74
2023/06/09 03:16:45;;;;;;;22.50;9.20;;;;;;;;;;5153307;27;20434;-73
2023/06/09 03:19:11;;;;;;;28.30;9.60;;;;;;;;;;5121998;28;20131;-73
2023/06/09 03:21:37;;;;;;;24.13;9.63;;;;;;;;;;5133168;27;20365;-74
2023/06/09 03:24:07;;;;;;;16.52;8.95;;;;;;;;;;5132815;27;20035;-73
2023/06/09 03:26:33;;;;;;;23.45;9.90;;;;;;;;;;5115833;27;20555;-73
2023/06/09 03:28:59;;;;;;;17.48;9.30;;;;;;;;;;5132896;27;20130;-74
2023/06/09 03:31:25;;;;;;;21.58;9.60;;;;;;;;;;5132821;27;20043;-73
2023/06/09 03:33:51;;;;;;;22.05;9.85;;;;;;;;;;5124415;27;20405;-74
2023/06/09 03:36:17;;;;;;;21.65;9.02;;;;;;;;;;5134522;27;20038;-74
2023/06/09 03:38:43;;;;;;;21.17;9.45;;;;;;;;;;5149846;27;20096;-74
2023/06/09 03:41:09;;;;;;;26.50;9.70;;;;;;;;;;5135865;27;20042;-73
2023/06/09 03:43:35;;;;;;;22.27;9.27;;;;;;;;;;5134910;27;20043;-73
2023/06/09 03:46:01;;;;;;;23.25;9.68;;;;;;;;;;5153822;27;20067;-74
2023/06/09 03:48:27;;;;;;;22.63;10.07;;;;;;;;;;5133591;27;20058;-74
2023/06/09 03:50:53;;;;;;;29.25;10.02;;;;;;;;;;5156605;27;20054;-73
2023/06/09 03:53:20;;;;;;;22.15;9.52;;;;;;;;;;5157529;27;20131;-73
2023/06/09 03:55:49;;;;;;;24.92;10.30;;;;;;;;;;5157641;27;20064;-74
2023/06/09 03:58:15;;;;;;;23.13;9.75;;;;;;;;;;5157389;27;20095;-73
2023/06/09 04:00:42;;;;;;;27.10;9.93;;;;;;;;;;5138622;27;20085;-73
2023/06/09 04:03:08;;;;;;;24.50;10.63;;;;;;;;;;5136815;27;20039;-73
2023/06/09 04:05:34;;;;;;;20.45;9.93;;;;;;;;;;5136630;27;20050;-73
2023/06/09 04:08:00;;;;;;;20.33;9.35;;;;;;;;;;5118038;27;20388;-73
2023/06/09 04:10:26;;;;;;;21.38;9.57;;;;;;;;;;5156316;27;20491;-73
2023/06/09 04:12:53;;;;;;;20.70;9.50;;;;;;;;;;5125169;27;20053;-73
2023/06/09 04:15:19;;;;;;;24.83;10.20;;;;;;;;;;5137502;27;20092;-73
2023/06/09 04:17:45;;;;;;;23.42;9.13;;;;;;;;;;5136207;27;20483;-74
2023/06/09 04:20:12;;;;;;;20.15;9.43;;;;;;;;;;5117817;27;20403;-73
2023/06/09 04:22:46;;;;;;;19.60;9.15;;;;;;;;;;5116877;27;20051;-73
2023/06/09 04:25:13;;;;;;;21.42;9.40;;;;;;;;;;5136954;27;20141;-73
2023/06/09 04:27:39;;;;;;;22.33;8.65;;;;;;;;;;5118742;27;20051;-74
2023/06/09 04:30:05;;;;;;;21.73;8.23;;;;;;;;;;5117302;27;20036;-73
2023/06/09 04:32:33;;;;;;;18.73;8.30;;;;;;;;;;5100684;27;20051;-73
2023/06/09 04:35:00;;;;;;;21.10;8.23;;;;;;;;;;5138946;27;20061;-74
2023/06/09 04:37:26;;;;;;;19.30;8.45;;;;;;;;;;5138438;27;20376;-74
2023/06/09 04:39:52;;;;;;;18.00;8.23;;;;;;;;;;5141879;27;20367;-73
2023/06/09 04:42:22;;;;;;;20.35;8.05;;;;;;;;;;5137525;27;20494;-74
2023/06/09 04:44:49;;;;;;;23.92;8.75;;;;;;;;;;5135242;27;20389;-74
2023/06/09 04:47:18;;;;;;;18.75;7.93;;;;;;;;;;5156533;27;20502;-73
2023/06/09 04:49:46;;;;;;;21.48;8.02;;;;;;;;;;5154171;27;20387;-74
2023/06/09 04:52:13;;;;;;;19.92;8.23;;;;;;;;;;5155035;27;20038;-74
2023/06/09 04:54:39;;;;;;;23.75;7.95;;;;;;;;;;5135122;27;20043;-73
2023/06/09 04:57:05;;;;;;;23.60;8.38;;;;;;;;;;5146367;27;20075;-74
2023/06/09 04:59:31;;;;;;;18.92;7.50;;;;;;;;;;5152441;27;20038;-73
2023/06/09 05:01:57;;;;;;;17.85;7.70;;;;;;;;;;5133056;27;20043;-74
2023/06/09 05:04:23;;;;;;;18.58;7.57;;;;;;;;;;5132295;27;20043;-73
2023/06/09 05:06:50;;;;;;;19.20;8.07;;;;;;;;;;5150175;27;20549;-73
2023/06/09 05:09:16;;;;;;;21.73;7.82;;;;;;;;;;5129136;27;20422;-73
2023/06/09 05:11:42;;;;;;;21.30;8.25;;;;;;;;;;5155145;27;20085;-73
2023/06/09 05:14:08;;;;;;;20.58;8.27;;;;;;;;;;5122703;27;20118;-73
2023/06/09 05:16:35;;;;;;;18.30;7.75;;;;;;;;;;5140381;27;20430;-73
2023/06/09 05:19:01;;;;;;;21.70;7.78;;;;;;;;;;5145919;27;20035;-73
2023/06/09 05:21:27;;;;;;;21.00;8.68;;;;;;;;;;5142398;27;20110;-73
2023/06/09 05:23:53;;;;;;;20.75;8.35;;;;;;;;;;5104280;27;20054;-73
2023/06/09 05:26:19;;;;;;;21.50;7.82;;;;;;;;;;5134911;27;20130;-73
2023/06/09 05:28:46;;;;;;;21.92;8.30;;;;;;;;;;5116285;27;20047;-74
2023/06/09 05:31:12;;;;;;;18.05;7.60;;;;;;;;;;5134796;27;20046;-74
2023/06/09 05:33:39;;;;;;;19.95;7.93;;;;;;;;;;5116279;27;20047;-74
2023/06/09 05:36:05;;;;;;;20.92;7.85;;;;;;;;;;5116862;27;20047;-74
2023/06/09 05:38:31;;;;;;;20.02;7.97;;;;;;;;;;5116489;27;20411;-74
2023/06/09 05:40:57;;;;;;;14.63;7.78;;;;;;;;;;5116229;27;20044;-73
2023/06/09 05:43:29;;;;;;;20.55;8.20;;;;;;;;;;5134712;27;20049;-73
2023/06/09 05:45:55;;;;;;;18.95;7.32;;;;;;;;;;5134909;27;20047;-74
2023/06/09 05:48:21;;;;;;;16.75;7.13;;;;;;;;;;5134312;27;20043;-74
2023/06/09 05:50:47;;;;;;;23.30;7.97;;;;;;;;;;5134384;27;20035;-74
2023/06/09 05:53:15;;;;;;;22.48;7.97;;;;;;;;;;5121509;27;20491;-73
2023/06/09 05:55:41;;;;;;;21.15;8.25;;;;;;;;;;5153891;27;20077;-74
2023/06/09 05:58:07;;;;;;;21.00;7.30;;;;;;;;;;5153895;27;20062;-74
2023/06/09 06:00:33;;;;;;;24.38;8.07;;;;;;;;;;5153268;27;20083;-73
2023/06/09 06:03:00;;;;;;;19.58;7.80;;;;;;;;;;5155061;27;20043;-73
2023/06/09 06:05:26;;;;;;;21.08;8.07;;;;;;;;;;5154794;27;20368;-74
2023/06/09 06:07:52;;;;;;;20.15;7.63;;;;;;;;;;5154609;27;20100;-73
2023/06/09 06:10:18;;;;;;;21.17;7.55;;;;;;;;;;5154332;27;20046;-74
2023/06/09 06:12:44;;;;;;;25.85;7.78;;;;;;;;;;5152469;27;20054;-73
2023/06/09 06:15:11;;;;;;;19.67;7.68;;;;;;;;;;5154485;27;20039;-73
2023/06/09 06:17:37;;;;;;;20.58;7.47;;;;;;;;;;5154777;27;20403;-73
2023/06/09 06:20:05;;;;;;;20.20;7.60;;;;;;;;;;5154244;27;20053;-73
2023/06/09 06:22:31;;;;;;;21.30;7.47;;;;;;;;;;5134873;27;20042;-73
2023/06/09 06:24:57;;;;;;;18.85;7.38;;;;;;;;;;5134691;27;20046;-73
2023/06/09 06:27:23;;;;;;;16.73;6.97;;;;;;;;;;5154409;27;20039;-74
2023/06/09 06:29:49;;;;;;;16.75;6.90;;;;;;;;;;5135523;27;20060;-73
2023/06/09 06:32:15;;;;;;;19.90;7.07;;;;;;;;;;5154042;27;20079;-72
2023/06/09 06:34:41;;;;;;;20.92;7.82;;;;;;;;;;5153033;27;20385;-72
2023/06/09 06:37:07;;;;;;;21.85;7.57;;;;;;;;;;5154716;27;20069;-72
2023/06/09 06:39:33;;;;;;;20.40;6.97;;;;;;;;;;5135500;27;20051;-73
2023/06/09 06:42:00;;;;;;;20.95;7.80;;;;;;;;;;5154188;27;20085;-73
2023/06/09 06:44:26;;;;;;;19.65;7.32;;;;;;;;;;5135318;27;20043;-73
2023/06/09 06:46:52;;;;;;;16.45;7.13;;;;;;;;;;5113888;27;20088;-73
2023/06/09 06:49:18;;;;;;;23.70;7.45;;;;;;;;;;5154193;27;20046;-73
2023/06/09 06:51:44;;;;;;;21.58;7.78;;;;;;;;;;5151659;27;20479;-73
2023/06/09 06:54:10;;;;;;;17.05;6.97;;;;;;;;;;5153894;27;20071;-73
2023/06/09 06:56:36;;;;;;;20.02;7.00;;;;;;;;;;5153880;27;20039;-73
2023/06/09 06:59:02;;;;;;;15.88;6.50;;;;;;;;;;5151551;27;20074;-73
2023/06/09 07:01:29;;;;;;;19.42;7.18;;;;;;;;;;5135286;27;20089;-73
2023/06/09 07:03:56;;;;;;;17.17;6.80;;;;;;;;;;5114570;27;20047;-73
2023/06/09 07:06:22;;;;;;;19.10;7.00;;;;;;;;;;5133158;27;20043;-73
2023/06/09 07:08:49;;;;;;;18.75;7.13;;;;;;;;;;5132758;27;20055;-74
2023/06/09 07:11:15;;;;;;;19.52;6.50;;;;;;;;;;5135430;27;20487;-73
2023/06/09 07:13:41;;;;;;;17.42;6.57;;;;;;;;;;5127010;28;20108;-74
2023/06/09 07:16:08;;;;;;;18.60;6.47;;;;;;;;;;5146547;27;20039;-73
2023/06/09 07:18:34;;;;;;;17.45;6.97;;;;;;;;;;5134977;27;20047;-73
2023/06/09 07:21:00;;;;;;;16.52;6.80;;;;;;;;;;5135022;27;20099;-74
2023/06/09 07:23:26;;;;;;;22.10;7.15;;;;;;;;;;5152581;27;20451;-74
2023/06/09 07:25:52;;;;;;;23.73;7.25;;;;;;;;;;5139270;27;20436;-74
2023/06/09 07:28:18;;;;;;;13.95;6.85;;;;;;;;;;5139113;27;20046;-74
2023/06/09 07:30:44;;;;;;;18.52;7.10;;;;;;;;;;5147480;27;20079;-74
2023/06/09 07:33:10;;;;;;;18.23;6.70;;;;;;;;;;5136962;27;20122;-74
2023/06/09 07:35:37;;;;;;;17.40;6.78;;;;;;;;;;5137070;27;20440;-67
2023/06/09 07:38:03;;;;;;;15.88;6.68;;;;;;;;;;5138204;27;20088;-74
2023/06/09 07:40:29;;;;;;;18.75;6.70;;;;;;;;;;5118064;27;20039;-74
2023/06/09 07:42:56;;;;;;;13.32;6.55;;;;;;;;;;5136874;27;20051;-74
2023/06/09 07:45:22;;;;;;;15.88;6.80;;;;;;;;;;5136741;27;20043;-74
2023/06/09 07:47:48;;;;;;;16.17;6.90;;;;;;;;;;5117618;27;20055;-74
2023/06/09 07:50:15;;;;;;;18.23;6.60;;;;;;;;;;5117363;27;20106;-74
2023/06/09 07:52:41;;;;;;;18.40;6.50;;;;;;;;;;5118141;27;20043;-74
2023/06/09 07:55:07;;;;;;;23.55;6.85;;;;;;;;;;5136297;27;20492;-74
2023/06/09 07:57:34;;;;;;;16.38;6.03;;;;;;;;;;5118185;27;20078;-74
2023/06/09 08:00:00;;;;;;;17.63;6.25;;;;;;;;;;5143996;27;20431;-74
2023/06/09 08:02:26;;;;;;;14.93;6.30;;;;;;;;;;5148322;27;20080;-75
2023/06/09 08:04:52;;;;;;;21.70;6.22;;;;;;;;;;5152998;27;20406;-73
2023/06/09 08:07:18;;;;;;;14.55;6.55;;;;;;;;;;5138162;27;20066;-70
2023/06/09 08:09:44;;;;;;;13.48;6.03;;;;;;;;;;5135793;27;20054;-70
2023/06/09 08:12:11;;;;;;;14.25;6.32;;;;;;;;;;5138785;27;20046;-70
2023/06/09 08:14:38;;;;;;;13.20;5.63;;;;;;;;;;5138321;27;20421;-71
2023/06/09 08:17:05;;;;;;;13.15;6.22;;;;;;;;;;5156978;27;20451;-71
2023/06/09 08:19:31;;;;;;;12.95;6.25;;;;;;;;;;5138051;27;20042;-71
2023/06/09 08:21:57;;;;;;;14.05;6.07;;;;;;;;;;5124758;27;20093;-70
2023/06/09 08:24:24;;;;;;;11.07;5.55;;;;;;;;;;5135777;27;20058;-70
2023/06/09 08:26:51;;;;;;;15.50;6.40;;;;;;;;;;5144861;27;20050;-70
2023/06/09 08:29:18;;;;;;;13.68;5.70;;;;;;;;;;5135739;27;20047;-71
2023/06/09 08:31:44;;;;;;;15.77;5.75;;;;;;;;;;5133676;27;20047;-70
2023/06/09 08:34:10;;;;;;;13.15;5.53;;;;;;;;;;5140301;27;20402;-70
2023/06/09 08:36:37;;;;;;;15.25;5.53;;;;;;;;;;5154798;27;20042;-70
2023/06/09 08:39:03;;;;;;;15.60;6.05;;;;;;;;;;5156390;27;20491;-70
2023/06/09 08:41:34;;;;;;;13.90;5.20;;;;;;;;;;5155915;27;20402;-70
2023/06/09 08:44:01;;;;;;;13.27;5.78;;;;;;;;;;5137615;27;20061;-71
2023/06/09 08:46:29;;;;;;;15.02;5.63;;;;;;;;;;5153588;27;20073;-71
2023/06/09 08:48:57;;;;;;;12.50;5.30;;;;;;;;;;5153356;27;20047;-71
2023/06/09 08:51:23;;;;;;;14.40;5.38;;;;;;;;;;5135289;27;20043;-71
2023/06/09 08:53:51;;;;;;;11.68;5.22;;;;;;;;;;5133415;27;20050;-71
2023/06/09 08:56:17;;;;;;;15.88;5.45;;;;;;;;;;5097510;27;20076;-73
2023/06/09 08:58:44;;;;;;;10.05;5.25;;;;;;;;;;5100477;27;20043;-74
2023/06/09 09:01:10;;;;;;;14.25;5.53;;;;;;;;;;5119662;27;20043;-74
2023/06/09 09:03:36;;;;;;;13.82;5.40;;;;;;;;;;5153021;27;20071;-74
2023/06/09 09:06:02;;;;;;;12.93;5.20;;;;;;;;;;5154595;27;20444;-74
2023/06/09 09:08:28;;;;;;;13.02;5.32;;;;;;;;;;5154971;27;20122;-74
2023/06/09 09:10:54;;;;;;;11.88;5.03;;;;;;;;;;5155505;27;20127;-74
2023/06/09 09:13:24;;;;;;;15.50;5.95;;;;;;;;;;5136814;27;20078;-74
2023/06/09 09:15:51;;;;;;;10.55;4.78;;;;;;;;;;5155818;27;20047;-75
2023/06/09 09:18:19;;;;;;;10.05;4.65;;;;;;;;;;5155850;27;20046;-75
2023/06/09 09:20:45;;;;;;;12.43;5.20;;;;;;;;;;5119955;27;20395;-75
2023/06/09 09:23:11;;;;;;;14.30;5.80;;;;;;;;;;5136219;27;20398;-74
2023/06/09 09:25:38;;;;;;;13.57;5.47;;;;;;;;;;5136667;27;20043;-75
2023/06/09 09:28:13;;;;;;;11.63;4.80;;;;;;;;;;5154037;27;20046;-73
2023/06/09 09:30:39;;;;;;;;;;;;;;;;;;5133901;27;20039;-73
2023/06/09 09:33:09;;;;;;;14.00;5.28;;;;;;;;;;5135854;27;19922;-74
2023/06/09 09:35:43;;;;;;;15.02;5.30;;;;;;;;;;5155102;27;20483;-74
2023/06/09 09:38:19;;;;;;;12.32;5.28;;;;;;;;;;5155192;27;20042;-73
2023/06/09 09:40:50;;;;;;;11.52;4.80;;;;;;;;;;5155168;27;20046;-74
2023/06/09 09:43:16;;;;;;;8.10;4.35;;;;;;;;;;5118935;27;20068;-74
2023/06/09 09:45:43;;;;;;;10.43;4.60;;;;;;;;;;5154957;27;20047;-73
2023/06/09 09:48:17;;;;;;;9.80;4.68;;;;;;;;;;5153813;27;20050;-74
2023/06/09 09:50:44;;;;;;;12.80;4.90;;;;;;;;;;5134987;27;20061;-74
2023/06/09 09:53:11;;;;;;;12.00;4.35;;;;;;;;;;5135848;27;20054;-73
2023/06/09 09:55:44;;;;;;;13.23;4.45;;;;;;;;;;5136060;27;20049;-73
2023/06/09 09:58:10;;;;;;;10.07;4.10;;;;;;;;;;5136346;27;20407;-73
2023/06/09 10:00:38;;;;;;;14.50;4.72;;;;;;;;;;5154963;27;20448;-73
2023/06/09 10:03:11;;;;;;;8.55;4.47;;;;;;;;;;5154780;27;20047;-73
2023/06/09 10:05:39;;;;;;;15.60;4.82;;;;;;;;;;5154577;27;20578;-74
2023/06/09 10:08:06;;;;;;;10.60;5.03;;;;;;;;;;5154188;27;20100;-73
2023/06/09 10:10:32;;;;;;;8.75;4.03;;;;;;;;;;5135752;27;20501;-74
2023/06/09 10:13:00;;;;;;;9.25;4.70;;;;;;;;;;5135838;27;20130;-74
2023/06/09 10:15:26;;;;;;;9.90;4.00;;;;;;;;;;5154561;27;20098;-74
2023/06/09 10:17:56;;;;;;;8.52;4.10;;;;;;;;;;5135831;27;20051;-73
2023/06/09 10:20:22;;;;;;;9.65;4.45;;;;;;;;;;5154295;27;20055;-74
2023/06/09 10:22:48;;;;;;;8.57;4.28;;;;;;;;;;5154821;27;20039;-74
2023/06/09 10:25:15;;;;;;;9.80;3.97;;;;;;;;;;5154293;27;20046;-74
2023/06/09 10:27:42;;;;;;;11.90;4.30;;;;;;;;;;5154194;27;20043;-73
2023/06/09 10:30:09;;;;;;;11.25;4.47;;;;;;;;;;5153895;27;20039;-73
2023/06/09 10:32:37;;;;;;;10.98;4.15;;;;;;;;;;5153203;27;20076;-73
2023/06/09 10:35:04;;;;;;;9.98;4.25;;;;;;;;;;5154054;27;20045;-73
2023/06/09 10:37:31;;;;;;;8.20;4.20;;;;;;;;;;5136009;27;20049;-74
2023/06/09 10:40:11;;;;;;;9.60;4.40;;;;;;;;;;5134995;27;20042;-74
2023/06/09 10:42:46;;;;;;;13.73;4.57;;;;;;;;;;5154185;27;20556;-75
2023/06/09 10:45:17;;;;;;;12.57;4.72;;;;;;;;;;5135309;27;20046;-74
2023/06/09 10:47:44;;;;;;;9.23;4.82;;;;;;;;;;5151938;27;20074;-75
2023/06/09 10:50:32;;;;;;;9.70;4.38;;;;;;;;;;5146486;27;20031;-75
2023/06/09 10:52:58;;;;;;;10.00;4.40;;;;;;;;;;5118083;27;20122;-71
2023/06/09 10:55:27;;;;;;;10.40;4.93;;;;;;;;;;5136657;27;20050;-70
2023/06/09 10:57:53;;;;;;;10.70;4.35;;;;;;;;;;5154784;27;20061;-76
2023/06/09 11:00:20;;;;;;;8.57;4.35;;;;;;;;;;5114507;27;20050;-76
2023/06/09 11:02:50;;;;;;;10.32;4.50;;;;;;;;;;5150700;27;20047;-76
2023/06/09 11:05:17;;;;;;;9.45;4.80;;;;;;;;;;5150461;27;20042;-77
2023/06/09 11:07:46;;;;;;;9.10;4.32;;;;;;;;;;5114427;27;20042;-76
2023/06/09 11:10:13;;;;;;;9.40;4.40;;;;;;;;;;5149943;27;20099;-76
2023/06/09 11:12:39;;;;;;;8.77;4.35;;;;;;;;;;5150828;27;20054;-77
2023/06/09 11:15:07;;;;;;;10.00;3.88;;;;;;;;;;5150282;27;20043;-77
2023/06/09 11:17:43;;;;;;;9.23;4.10;;;;;;;;;;5150376;27;20499;-76
2023/06/09 11:20:09;;;;;;;7.82;3.90;;;;;;;;;;5153009;27;20096;-74
2023/06/09 11:22:55;;;;;;;8.43;3.80;;;;;;;;;;5134701;27;20042;-75
2023/06/09 11:25:22;;;;;;;8.75;3.70;;;;;;;;;;5132542;28;20050;-75
2023/06/09 11:27:51;;;;;;;12.50;3.45;;;;;;;;;;5132706;28;20371;-75
2023/06/09 11:30:18;;;;;;;10.93;3.63;;;;;;;;;;5132901;28;20075;-75
2023/06/09 11:32:48;;;;;;;8.77;3.60;;;;;;;;;;5137401;27;20122;-77
2023/06/09 11:38:02;;;;;;;7.18;3.20;;;;;;;;;;5132791;27;20065;-74
2023/06/09 11:40:29;;;;;;;8.63;3.20;;;;;;;;;;5132348;28;20051;-74
2023/06/09 11:42:56;;;;;;;6.28;3.10;;;;;;;;;;5132585;28;20047;-73
2023/06/09 11:45:25;;;;;;;6.80;3.20;;;;;;;;;;5132530;28;20047;-74
2023/06/09 11:47:56;;;;;;;8.93;3.83;;;;;;;;;;5132574;28;20057;-73
2023/06/09 11:50:23;;;;;;;7.05;3.58;;;;;;;;;;5132482;28;20130;-74
2023/06/09 11:53:02;;;;;;;7.43;3.53;;;;;;;;;;5132707;28;20051;-74
2023/06/09 11:55:28;;;;;;;6.60;3.13;;;;;;;;;;5114408;28;20047;-74
2023/06/09 11:57:55;;;;;;;7.63;3.30;;;;;;;;;;5132688;28;20039;-74
2023/06/09 12:00:26;;;;;;;6.05;3.30;;;;;;;;;;5133303;27;20116;-74
2023/06/09 12:02:52;;;;;;;6.28;3.40;;;;;;;;;;5122305;27;20368;-74
2023/06/09 12:05:19;;;;;;;9.02;3.50;;;;;;;;;;5145339;27;20502;-74
2023/06/09 12:07:46;;;;;;;7.15;3.50;;;;;;;;;;5131777;28;20153;-74
2023/06/09 12:10:13;;;;;;;9.45;3.75;;;;;;;;;;5141063;27;20038;-74
2023/06/09 12:12:49;;;;;;;6.20;3.45;;;;;;;;;;5121099;27;20045;-74
2023/06/09 12:15:16;;;;;;;6.82;3.33;;;;;;;;;;5132240;27;20054;-74
2023/06/09 12:17:42;;;;;;;6.28;3.25;;;;;;;;;;5140649;27;20035;-74
2023/06/09 12:20:20;;;;;;;6.72;3.03;;;;;;;;;;5135233;27;20075;-73
2023/06/09 12:22:46;;;;;;;9.38;2.97;;;;;;;;;;5136082;27;20395;-75
2023/06/09 12:25:39;;;;;;;6.97;3.22;;;;;;;;;;5135713;27;20043;-73
2023/06/09 12:28:40;;;;;;;8.05;3.70;;;;;;;;;;5113256;27;20058;-74
2023/06/09 12:31:09;;;;;;;10.38;3.67;;;;;;;;;;5051514;28;20520;-74
2023/06/09 12:33:36;;;;;;;8.02;3.50;;;;;;;;;;5103003;27;20074;-74
2023/06/09 12:36:12;;;;;;;9.45;3.58;;;;;;;;;;5146686;27;20038;-74
2023/06/09 12:38:38;;;;;;;9.48;3.92;;;;;;;;;;5135857;27;20039;-74
2023/06/09 12:41:06;;;;;;;8.02;3.63;;;;;;;;;;5154092;27;20042;-74
2023/06/09 12:43:51;;;;;;;7.63;3.75;;;;;;;;;;5118753;27;20416;-74
2023/06/09 12:46:19;;;;;;;8.43;3.85;;;;;;;;;;5145237;27;20105;-74
2023/06/09 12:49:01;;;;;;;9.25;3.90;;;;;;;;;;5116916;27;20068;-74
2023/06/09 12:51:27;;;;;;;5.75;3.35;;;;;;;;;;5135107;27;20130;-74
2023/06/09 12:53:54;;;;;;;10.18;3.78;;;;;;;;;;5134888;27;20043;-74
2023/06/09 12:56:20;;;;;;;9.18;3.70;;;;;;;;;;5099788;27;20043;-74
2023/06/09 12:58:46;;;;;;;7.05;4.07;;;;;;;;;;5150090;27;20046;-74
2023/06/09 13:01:13;;;;;;;9.40;3.70;;;;;;;;;;5130850;27;20108;-74
2023/06/09 13:03:39;;;;;;;7.18;3.90;;;;;;;;;;5124828;27;20070;-74
2023/06/09 13:06:05;;;;;;;6.95;3.70;;;;;;;;;;5130824;27;20454;-80
2023/06/09 13:08:31;;;;;;;8.63;4.00;;;;;;;;;;5139454;27;20055;-74
2023/06/09 13:10:57;;;;;;;7.95;3.95;;;;;;;;;;5137415;27;20039;-70
2023/06/09 13:13:23;;;;;;;8.82;4.00;;;;;;;;;;5155860;27;20050;-69
2023/06/09 13:15:49;;;;;;;8.05;3.95;;;;;;;;;;5133897;27;20443;-69
2023/06/09 13:18:16;;;;;;;8.60;4.18;;;;;;;;;;5154460;27;20157;-70
2023/06/09 13:20:42;;;;;;;8.10;4.00;;;;;;;;;;5117586;27;20047;-69
2023/06/09 13:23:08;;;;;;;8.30;4.32;;;;;;;;;;5155388;27;20129;-69
2023/06/09 13:25:34;;;;;;;10.35;4.20;;;;;;;;;;5155524;27;20471;-70
2023/06/09 13:28:00;;;;;;;13.95;4.22;;;;;;;;;;5136670;27;20111;-70
2023/06/09 13:30:26;;;;;;;8.43;4.10;;;;;;;;;;5135644;27;20107;-69
2023/06/09 13:32:52;;;;;;;10.07;4.13;;;;;;;;;;5152122;27;20095;-70
2023/06/09 13:35:19;;;;;;;10.18;4.20;;;;;;;;;;5136728;27;20038;-70
2023/06/09 13:37:45;;;;;;;10.02;4.38;;;;;;;;;;5135197;27;20061;-70
2023/06/09 13:40:11;;;;;;;9.30;4.18;;;;;;;;;;5152148;27;20039;-70
2023/06/09 13:42:37;;;;;;;8.57;3.95;;;;;;;;;;5134164;27;20035;-70
2023/06/09 13:45:03;;;;;;;7.13;4.05;;;;;;;;;;5134337;27;20039;-70
2023/06/09 13:47:31;;;;;;;10.02;4.03;;;;;;;;;;5127634;27;20054;-69
2023/06/09 13:49:57;;;;;;;6.70;4.10;;;;;;;;;;5154716;27;20538;-70
2023/06/09 13:52:23;;;;;;;14.00;4.22;;;;;;;;;;5117361;27;20041;-74
2023/06/09 13:54:49;;;;;;;13.10;4.35;;;;;;;;;;5099986;27;20103;-73
2023/06/09 13:57:16;;;;;;;9.95;4.30;;;;;;;;;;5149902;27;20191;-73
2023/06/09 13:59:42;;;;;;;8.10;4.13;;;;;;;;;;5135845;27;20038;-76
2023/06/09 14:02:08;;;;;;;11.82;4.53;;;;;;;;;;5136598;27;20039;-75
2023/06/09 14:04:35;;;;;;;11.60;4.25;;;;;;;;;;5154438;27;20398;-77
2023/06/09 14:07:02;;;;;;;8.77;4.20;;;;;;;;;;5132522;27;20408;-75
2023/06/09 14:09:28;;;;;;;11.18;4.15;;;;;;;;;;5117630;27;20130;-75
2023/06/09 14:11:54;;;;;;;9.45;4.15;;;;;;;;;;5111839;28;20044;-75
2023/06/09 14:14:20;;;;;;;10.60;4.20;;;;;;;;;;5113317;28;20131;-75
2023/06/09 14:16:46;;;;;;;11.32;4.50;;;;;;;;;;5113600;27;20081;-74
2023/06/09 14:19:12;;;;;;;10.90;4.57;;;;;;;;;;5120675;27;20055;-74
2023/06/09 14:21:38;;;;;;;10.60;4.60;;;;;;;;;;5119319;27;20057;-75
2023/06/09 14:24:05;;;;;;;8.70;3.83;;;;;;;;;;5117560;27;20048;-75
2023/06/09 14:26:31;;;;;;;9.77;4.78;;;;;;;;;;5113324;28;20051;-71
2023/06/09 14:28:57;;;;;;;9.57;4.30;;;;;;;;;;5113189;28;20464;-71
2023/06/09 14:31:23;;;;;;;9.98;4.30;;;;;;;;;;5114950;27;20046;-71
2023/06/09 14:33:49;;;;;;;9.43;4.03;;;;;;;;;;5124876;27;20053;-72
2023/06/09 14:36:15;;;;;;;8.75;4.28;;;;;;;;;;5133201;27;20071;-71
2023/06/09 14:38:42;;;;;;;9.45;4.20;;;;;;;;;;5133113;27;20043;-71